createdAt,value
2016-04-02T00:00:01.017Z,993.67
2016-04-02T00:01:01.021Z,993.64
2016-04-02T00:02:01.023Z,993.71
2016-04-02T00:03:01.041Z,993.71
2016-04-02T00:04:01.029Z,993.66
2016-04-02T00:05:01.031Z,993.65
2016-04-02T00:06:01.018Z,993.61
2016-04-02T00:07:01.021Z,993.56
2016-04-02T00:08:01.023Z,993.57
2016-04-02T00:09:01.026Z,993.6
2016-04-02T00:10:01.028Z,993.59
2016-04-02T00:11:01.016Z,993.56
2016-04-02T00:12:01.034Z,993.56
2016-04-02T00:13:01.021Z,993.56
2016-04-02T00:14:01.009Z,993.56
2016-04-02T00:15:01.011Z,993.53
2016-04-02T00:16:01.045Z,993.54
2016-04-02T00:17:01.017Z,993.57
2016-04-02T00:18:01.019Z,993.6
2016-04-02T00:19:01.022Z,993.61
2016-04-02T00:20:01.555Z,993.58
2016-04-02T00:21:00.996Z,993.57
2016-04-02T00:22:01.014Z,993.52
2016-04-02T00:23:01.001Z,993.55
2016-04-02T00:24:01.004Z,993.54
2016-04-02T00:25:01.006Z,993.56
2016-04-02T00:26:01.009Z,993.58
2016-04-02T00:27:00.997Z,993.62
2016-04-02T00:28:01.000Z,993.6
2016-04-02T00:29:01.002Z,993.6
2016-04-02T00:30:01.004Z,993.56
2016-04-02T00:31:01.022Z,993.55
2016-04-02T00:32:00.994Z,993.52
2016-04-02T00:33:00.996Z,993.58
2016-04-02T00:34:01.015Z,993.56
2016-04-02T00:35:01.002Z,993.51
2016-04-02T00:36:00.979Z,993.51
2016-04-02T00:37:00.981Z,993.49
2016-04-02T00:38:00.999Z,993.52
2016-04-02T00:39:00.987Z,993.47
2016-04-02T00:40:01.004Z,993.46
2016-04-02T00:41:00.993Z,993.46
2016-04-02T00:42:00.979Z,993.45
2016-04-02T00:43:00.981Z,993.44
2016-04-02T00:44:00.985Z,993.48
2016-04-02T00:45:01.003Z,993.44
2016-04-02T00:46:01.006Z,993.46
2016-04-02T00:47:00.977Z,993.45
2016-04-02T00:48:00.980Z,993.51
2016-04-02T00:49:00.983Z,993.47
2016-04-02T00:50:00.985Z,993.47
2016-04-02T00:51:00.972Z,993.49
2016-04-02T00:52:00.991Z,993.49
2016-04-02T00:53:00.977Z,993.56
2016-04-02T00:54:00.980Z,993.52
2016-04-02T00:55:00.983Z,993.5
2016-04-02T00:56:00.969Z,993.45
2016-04-02T00:57:00.972Z,993.41
2016-04-02T00:58:00.974Z,993.39
2016-04-02T00:59:00.978Z,993.39
2016-04-02T01:00:00.980Z,993.33
2016-04-02T01:01:00.968Z,993.26
2016-04-02T01:02:00.955Z,993.26
2016-04-02T01:03:00.957Z,993.25
2016-04-02T01:04:00.960Z,993.25
2016-04-02T01:05:00.963Z,993.25
2016-04-02T01:06:00.950Z,993.27
2016-04-02T01:07:00.968Z,993.29
2016-04-02T01:08:00.970Z,993.3
2016-04-02T01:09:00.943Z,993.25
2016-04-02T01:10:00.946Z,993.23
2016-04-02T01:11:00.948Z,993.21
2016-04-02T01:12:00.935Z,993.18
2016-04-02T01:13:00.937Z,993.17
2016-04-02T01:14:00.956Z,993.15
2016-04-02T01:15:00.942Z,993.15
2016-04-02T01:16:00.931Z,993.13
2016-04-02T01:17:00.948Z,993.08
2016-04-02T01:18:00.935Z,993.05
2016-04-02T01:19:00.953Z,993.04
2016-04-02T01:20:00.941Z,993.01
2016-04-02T01:21:00.928Z,993
2016-04-02T01:22:00.931Z,992.96
2016-04-02T01:23:00.918Z,992.93
2016-04-02T01:24:00.936Z,992.9
2016-04-02T01:25:00.922Z,992.96
2016-04-02T01:26:00.925Z,993.01
2016-04-02T01:27:00.913Z,992.95
2016-04-02T01:28:00.916Z,992.94
2016-04-02T01:29:00.919Z,992.88
2016-04-02T01:30:00.921Z,992.83
2016-04-02T01:31:00.924Z,992.81
2016-04-02T01:32:00.911Z,992.73
2016-04-02T01:33:00.913Z,992.73
2016-04-02T01:34:00.932Z,992.71
2016-04-02T01:35:00.919Z,992.67
2016-04-02T01:36:00.905Z,992.6
2016-04-02T01:37:00.908Z,992.57
2016-04-02T01:38:00.896Z,992.65
2016-04-02T01:39:00.898Z,992.62
2016-04-02T01:40:00.901Z,992.63
2016-04-02T01:41:00.904Z,992.58
2016-04-02T01:42:00.890Z,992.6
2016-04-02T01:43:00.893Z,992.63
2016-04-02T01:44:00.896Z,992.64
2016-04-02T01:45:00.898Z,992.66
2016-04-02T01:46:00.901Z,992.67
2016-04-02T01:47:00.889Z,992.67
2016-04-02T01:48:00.875Z,992.7
2016-04-02T01:49:00.894Z,992.67
2016-04-02T01:50:00.880Z,992.67
2016-04-02T01:51:00.867Z,992.65
2016-04-02T01:52:00.886Z,992.62
2016-04-02T01:53:00.873Z,992.59
2016-04-02T01:54:00.875Z,992.57
2016-04-02T01:55:00.878Z,992.6
2016-04-02T01:56:00.859Z,992.57
2016-04-02T01:57:00.850Z,992.6
2016-04-02T01:58:00.841Z,992.56
2016-04-02T01:59:00.832Z,992.63
2016-04-02T02:00:00.807Z,992.61
2016-04-02T02:01:00.803Z,992.58
2016-04-02T02:02:00.801Z,992.58
2016-04-02T02:03:00.800Z,992.6
2016-04-02T02:04:00.798Z,992.57
2016-04-02T02:05:00.781Z,992.57
2016-04-02T02:06:00.781Z,992.56
2016-04-02T02:07:00.767Z,992.59
2016-04-02T02:08:00.768Z,992.62
2016-04-02T02:09:00.762Z,992.64
2016-04-02T02:10:00.763Z,992.71
2016-04-02T02:11:00.764Z,992.78
2016-04-02T02:12:00.750Z,992.8
2016-04-02T02:13:00.753Z,992.8
2016-04-02T02:14:00.755Z,992.8
2016-04-02T02:15:00.750Z,992.84
2016-04-02T02:16:00.753Z,992.85
2016-04-02T02:17:00.740Z,992.86
2016-04-02T02:18:00.742Z,992.85
2016-04-02T02:19:00.791Z,992.83
2016-04-02T02:20:00.730Z,992.78
2016-04-02T02:21:00.748Z,992.82
2016-04-02T02:22:00.735Z,992.74
2016-04-02T02:23:00.737Z,992.7
2016-04-02T02:24:00.725Z,992.75
2016-04-02T02:25:00.728Z,992.77
2016-04-02T02:26:00.730Z,992.79
2016-04-02T02:27:00.717Z,992.83
2016-04-02T02:28:00.721Z,992.79
2016-04-02T02:29:00.723Z,992.75
2016-04-02T02:30:00.726Z,992.72
2016-04-02T02:31:00.728Z,992.74
2016-04-02T02:32:00.715Z,992.79
2016-04-02T02:33:00.718Z,992.83
2016-04-02T02:34:00.721Z,992.83
2016-04-02T02:35:00.709Z,992.86
2016-04-02T02:36:00.711Z,992.87
2016-04-02T02:37:00.714Z,992.84
2016-04-02T02:38:00.701Z,992.86
2016-04-02T02:39:00.703Z,992.85
2016-04-02T02:40:00.706Z,992.8
2016-04-02T02:41:00.693Z,992.84
2016-04-02T02:42:00.697Z,992.8
2016-04-02T02:43:00.683Z,992.77
2016-04-02T02:44:00.686Z,992.72
2016-04-02T02:45:00.689Z,992.78
2016-04-02T02:46:00.691Z,992.82
2016-04-02T02:47:00.678Z,992.78
2016-04-02T02:48:00.697Z,992.77
2016-04-02T02:49:00.699Z,992.73
2016-04-02T02:50:00.686Z,992.7
2016-04-02T02:51:00.688Z,992.7
2016-04-02T02:52:00.676Z,992.75
2016-04-02T02:53:00.679Z,992.73
2016-04-02T02:54:00.681Z,992.74
2016-04-02T02:55:00.668Z,992.74
2016-04-02T02:56:00.687Z,992.71
2016-04-02T02:57:00.674Z,992.7
2016-04-02T02:58:00.661Z,992.66
2016-04-02T02:59:00.663Z,992.67
2016-04-02T03:00:00.666Z,992.67
2016-04-02T03:01:00.668Z,992.65
2016-04-02T03:02:00.656Z,992.67
2016-04-02T03:03:00.659Z,992.67
2016-04-02T03:04:00.770Z,992.65
2016-04-02T03:05:00.649Z,992.63
2016-04-02T03:06:00.651Z,992.65
2016-04-02T03:07:00.670Z,992.67
2016-04-02T03:08:00.657Z,992.69
2016-04-02T03:09:00.676Z,992.66
2016-04-02T03:10:00.647Z,992.67
2016-04-02T03:11:00.634Z,992.65
2016-04-02T03:12:00.636Z,992.65
2016-04-02T03:13:00.639Z,992.67
2016-04-02T03:14:00.642Z,992.64
2016-04-02T03:15:00.628Z,992.62
2016-04-02T03:16:00.631Z,992.54
2016-04-02T03:17:00.633Z,992.53
2016-04-02T03:18:00.636Z,992.51
2016-04-02T03:19:00.733Z,992.49
2016-04-02T03:20:00.627Z,992.49
2016-04-02T03:21:00.630Z,992.52
2016-04-02T03:22:00.632Z,992.57
2016-04-02T03:23:00.619Z,992.56
2016-04-02T03:24:00.637Z,992.54
2016-04-02T03:25:00.624Z,992.5
2016-04-02T03:26:00.627Z,992.5
2016-04-02T03:27:00.629Z,992.49
2016-04-02T03:28:00.632Z,992.5
2016-04-02T03:29:00.619Z,992.46
2016-04-02T03:30:00.622Z,992.48
2016-04-02T03:31:00.610Z,992.47
2016-04-02T03:32:00.612Z,992.45
2016-04-02T03:33:00.646Z,992.48
2016-04-02T03:34:00.711Z,992.51
2016-04-02T03:35:00.604Z,992.49
2016-04-02T03:36:00.607Z,992.49
2016-04-02T03:37:00.610Z,992.48
2016-04-02T03:38:00.612Z,992.48
2016-04-02T03:39:00.615Z,992.48
2016-04-02T03:40:00.617Z,992.46
2016-04-02T03:41:00.605Z,992.48
2016-04-02T03:42:00.608Z,992.48
2016-04-02T03:43:00.611Z,992.51
2016-04-02T03:44:00.614Z,992.46
2016-04-02T03:45:00.600Z,992.43
2016-04-02T03:46:00.603Z,992.46
2016-04-02T03:47:00.606Z,992.42
2016-04-02T03:48:00.608Z,992.49
2016-04-02T03:49:00.627Z,992.5
2016-04-02T03:50:00.597Z,992.46
2016-04-02T03:51:00.600Z,992.47
2016-04-02T03:52:00.587Z,992.43
2016-04-02T03:53:00.590Z,992.45
2016-04-02T03:54:00.593Z,992.41
2016-04-02T03:55:00.595Z,992.36
2016-04-02T03:56:00.598Z,992.41
2016-04-02T03:57:00.601Z,992.41
2016-04-02T03:58:00.588Z,992.37
2016-04-02T03:59:00.591Z,992.41
2016-04-02T04:00:00.593Z,992.34
2016-04-02T04:01:00.596Z,992.36
2016-04-02T04:02:00.582Z,992.31
2016-04-02T04:03:00.585Z,992.31
2016-04-02T04:04:00.635Z,992.24
2016-04-02T04:05:00.591Z,992.28
2016-04-02T04:06:00.579Z,992.23
2016-04-02T04:07:00.582Z,992.24
2016-04-02T04:08:00.584Z,992.24
2016-04-02T04:09:00.587Z,992.25
2016-04-02T04:10:00.590Z,992.21
2016-04-02T04:11:00.576Z,992.16
2016-04-02T04:12:00.579Z,992.17
2016-04-02T04:13:00.581Z,992.13
2016-04-02T04:14:00.584Z,992.14
2016-04-02T04:15:00.587Z,992.15
2016-04-02T04:16:00.574Z,992.14
2016-04-02T04:17:00.592Z,992.17
2016-04-02T04:18:00.579Z,992.2
2016-04-02T04:19:00.707Z,992.22
2016-04-02T04:20:00.569Z,992.21
2016-04-02T04:21:00.588Z,992.17
2016-04-02T04:22:00.575Z,992.2
2016-04-02T04:23:00.577Z,992.16
2016-04-02T04:24:00.564Z,992.13
2016-04-02T04:25:00.567Z,992.09
2016-04-02T04:26:00.569Z,992.09
2016-04-02T04:27:00.572Z,992.09
2016-04-02T04:28:00.574Z,992.08
2016-04-02T04:29:00.562Z,991.98
2016-04-02T04:30:00.564Z,992
2016-04-02T04:31:00.567Z,991.98
2016-04-02T04:32:00.570Z,991.92
2016-04-02T04:33:00.573Z,991.92
2016-04-02T04:34:00.622Z,991.9
2016-04-02T04:35:00.579Z,991.91
2016-04-02T04:36:00.565Z,991.89
2016-04-02T04:37:00.568Z,991.91
2016-04-02T04:38:00.555Z,991.93
2016-04-02T04:39:00.557Z,991.95
2016-04-02T04:40:00.560Z,992
2016-04-02T04:41:00.562Z,991.96
2016-04-02T04:42:00.565Z,991.96
2016-04-02T04:43:00.568Z,991.92
2016-04-02T04:44:00.556Z,991.88
2016-04-02T04:45:00.559Z,991.85
2016-04-02T04:46:00.561Z,991.84
2016-04-02T04:47:00.564Z,991.92
2016-04-02T04:48:00.567Z,991.88
2016-04-02T04:49:00.584Z,991.93
2016-04-02T04:50:00.556Z,991.9
2016-04-02T04:51:00.558Z,991.92
2016-04-02T04:52:00.546Z,991.9
2016-04-02T04:53:00.549Z,991.88
2016-04-02T04:54:00.551Z,991.92
2016-04-02T04:55:00.554Z,991.96
2016-04-02T04:56:00.557Z,991.95
2016-04-02T04:57:00.543Z,992.01
2016-04-02T04:58:00.547Z,992
2016-04-02T04:59:00.549Z,991.99
2016-04-02T05:00:00.552Z,992.02
2016-04-02T05:01:00.555Z,992.02
2016-04-02T05:02:00.557Z,992.06
2016-04-02T05:03:00.560Z,992.07
2016-04-02T05:04:00.546Z,992.08
2016-04-02T05:05:00.549Z,992.1
2016-04-02T05:06:00.552Z,992.15
2016-04-02T05:07:00.539Z,992.07
2016-04-02T05:08:00.557Z,992.08
2016-04-02T05:09:00.544Z,992.09
2016-04-02T05:10:00.547Z,992.09
2016-04-02T05:11:00.550Z,992.1
2016-04-02T05:12:00.536Z,992.12
2016-04-02T05:13:00.540Z,992.06
2016-04-02T05:14:00.542Z,992.03
2016-04-02T05:15:00.545Z,992.02
2016-04-02T05:16:00.532Z,992.03
2016-04-02T05:17:00.534Z,992.01
2016-04-02T05:18:00.553Z,991.91
2016-04-02T05:19:00.555Z,991.93
2016-04-02T05:20:00.527Z,991.91
2016-04-02T05:21:00.530Z,991.95
2016-04-02T05:22:00.533Z,991.98
2016-04-02T05:23:00.536Z,991.98
2016-04-02T05:24:00.539Z,992
2016-04-02T05:25:00.541Z,992.04
2016-04-02T05:26:00.544Z,992.02
2016-04-02T05:27:00.530Z,992.03
2016-04-02T05:28:00.533Z,991.98
2016-04-02T05:29:00.521Z,991.94
2016-04-02T05:30:00.523Z,991.95
2016-04-02T05:31:00.526Z,991.94
2016-04-02T05:32:00.528Z,991.96
2016-04-02T05:33:00.515Z,992
2016-04-02T05:34:00.643Z,991.96
2016-04-02T05:35:00.520Z,991.99
2016-04-02T05:36:00.523Z,991.94
2016-04-02T05:37:00.510Z,991.9
2016-04-02T05:38:00.513Z,991.86
2016-04-02T05:39:00.516Z,991.84
2016-04-02T05:40:00.518Z,991.84
2016-04-02T05:41:00.537Z,991.87
2016-04-02T05:42:00.508Z,991.9
2016-04-02T05:43:00.511Z,991.88
2016-04-02T05:44:00.514Z,991.92
2016-04-02T05:45:00.516Z,991.9
2016-04-02T05:46:00.519Z,991.89
2016-04-02T05:47:00.521Z,991.88
2016-04-02T05:48:00.524Z,991.87
2016-04-02T05:49:00.542Z,991.87
2016-04-02T05:50:00.514Z,991.86
2016-04-02T05:51:00.517Z,991.9
2016-04-02T05:52:00.520Z,991.92
2016-04-02T05:53:00.522Z,991.92
2016-04-02T05:54:00.509Z,991.91
2016-04-02T05:55:00.512Z,991.92
2016-04-02T05:56:00.514Z,991.93
2016-04-02T05:57:00.517Z,991.95
2016-04-02T05:58:00.519Z,991.98
2016-04-02T05:59:00.522Z,991.96
2016-04-02T06:00:00.510Z,991.97
2016-04-02T06:01:00.528Z,991.94
2016-04-02T06:02:00.516Z,991.93
2016-04-02T06:03:00.518Z,991.95
2016-04-02T06:04:00.505Z,991.91
2016-04-02T06:05:00.524Z,991.93
2016-04-02T06:06:00.510Z,991.93
2016-04-02T06:07:00.513Z,991.92
2016-04-02T06:08:00.515Z,991.92
2016-04-02T06:09:00.518Z,991.87
2016-04-02T06:10:00.506Z,991.94
2016-04-02T06:11:00.523Z,991.96
2016-04-02T06:12:00.526Z,992
2016-04-02T06:13:00.497Z,992.03
2016-04-02T06:14:00.516Z,992
2016-04-02T06:15:00.519Z,992.01
2016-04-02T06:16:00.506Z,992.04
2016-04-02T06:17:00.525Z,992.05
2016-04-02T06:18:00.512Z,992.08
2016-04-02T06:19:00.561Z,992.01
2016-04-02T06:20:00.517Z,991.99
2016-04-02T06:21:00.503Z,991.99
2016-04-02T06:22:00.522Z,991.99
2016-04-02T06:23:00.509Z,991.93
2016-04-02T06:24:00.511Z,991.97
2016-04-02T06:25:00.514Z,991.91
2016-04-02T06:26:00.516Z,991.92
2016-04-02T06:27:00.504Z,991.88
2016-04-02T06:28:00.522Z,991.91
2016-04-02T06:29:00.524Z,991.93
2016-04-02T06:30:00.527Z,991.92
2016-04-02T06:31:00.515Z,991.93
2016-04-02T06:32:00.517Z,991.96
2016-04-02T06:33:00.521Z,991.92
2016-04-02T06:34:00.554Z,991.95
2016-04-02T06:35:00.526Z,991.94
2016-04-02T06:36:00.528Z,991.95
2016-04-02T06:37:00.515Z,991.92
2016-04-02T06:38:00.518Z,991.9
2016-04-02T06:39:00.505Z,991.92
2016-04-02T06:40:00.540Z,991.94
2016-04-02T06:41:00.527Z,991.95
2016-04-02T06:42:00.529Z,992
2016-04-02T06:43:00.516Z,992.03
2016-04-02T06:44:00.519Z,992.02
2016-04-02T06:45:00.506Z,992.01
2016-04-02T06:46:00.524Z,991.95
2016-04-02T06:47:00.511Z,991.93
2016-04-02T06:48:00.514Z,991.91
2016-04-02T06:49:00.611Z,991.85
2016-04-02T06:50:00.519Z,991.86
2016-04-02T06:51:00.522Z,991.81
2016-04-02T06:52:00.539Z,991.86
2016-04-02T06:53:00.542Z,991.83
2016-04-02T06:54:00.530Z,991.87
2016-04-02T06:55:00.533Z,991.86
2016-04-02T06:56:00.520Z,991.85
2016-04-02T06:57:00.538Z,991.86
2016-04-02T06:58:00.541Z,991.8
2016-04-02T06:59:00.512Z,991.84
2016-04-02T07:00:00.530Z,991.85
2016-04-02T07:01:00.518Z,991.89
2016-04-02T07:02:00.551Z,991.87
2016-04-02T07:03:00.523Z,991.85
2016-04-02T07:04:00.556Z,991.86
2016-04-02T07:05:00.528Z,991.87
2016-04-02T07:06:00.546Z,991.93
2016-04-02T07:07:00.549Z,991.99
2016-04-02T07:08:00.536Z,991.98
2016-04-02T07:09:00.555Z,991.97
2016-04-02T07:10:00.542Z,991.97
2016-04-02T07:11:00.545Z,991.95
2016-04-02T07:12:00.548Z,991.93
2016-04-02T07:13:00.534Z,991.95
2016-04-02T07:14:00.553Z,991.92
2016-04-02T07:15:00.540Z,991.95
2016-04-02T07:16:00.542Z,991.92
2016-04-02T07:17:00.561Z,991.97
2016-04-02T07:18:00.548Z,992.02
2016-04-02T07:19:00.550Z,992.03
2016-04-02T07:20:00.537Z,992.02
2016-04-02T07:21:00.540Z,992.02
2016-04-02T07:22:00.558Z,992.04
2016-04-02T07:23:00.577Z,992
2016-04-02T07:24:00.564Z,992.01
2016-04-02T07:25:00.550Z,992.02
2016-04-02T07:26:00.553Z,991.99
2016-04-02T07:27:00.571Z,991.98
2016-04-02T07:28:00.558Z,992.01
2016-04-02T07:29:00.561Z,991.96
2016-04-02T07:30:00.564Z,991.97
2016-04-02T07:31:00.567Z,992.02
2016-04-02T07:32:00.585Z,991.99
2016-04-02T07:33:00.572Z,991.99
2016-04-02T07:34:00.621Z,991.98
2016-04-02T07:35:00.562Z,992.02
2016-04-02T07:36:00.565Z,992.03
2016-04-02T07:37:00.568Z,992.02
2016-04-02T07:38:00.585Z,992.07
2016-04-02T07:39:00.573Z,992.06
2016-04-02T07:40:00.575Z,992.07
2016-04-02T07:41:00.562Z,992.1
2016-04-02T07:42:00.581Z,992.14
2016-04-02T07:43:00.584Z,992.14
2016-04-02T07:44:00.587Z,992.14
2016-04-02T07:45:00.573Z,992.14
2016-04-02T07:46:00.592Z,992.14
2016-04-02T07:47:00.578Z,992.15
2016-04-02T07:48:00.581Z,992.1
2016-04-02T07:49:00.615Z,992.13
2016-04-02T07:50:00.586Z,992.14
2016-04-02T07:51:00.590Z,992.15
2016-04-02T07:52:00.592Z,992.13
2016-04-02T07:53:00.595Z,992.09
2016-04-02T07:54:00.598Z,992.12
2016-04-02T07:55:00.600Z,992.1
2016-04-02T07:56:00.587Z,992.1
2016-04-02T07:57:00.621Z,992.13
2016-04-02T07:58:00.608Z,992.14
2016-04-02T07:59:00.594Z,992.1
2016-04-02T08:00:00.613Z,992.06
2016-04-02T08:01:00.600Z,992.01
2016-04-02T08:02:00.603Z,992.05
2016-04-02T08:03:00.622Z,992.06
2016-04-02T08:04:00.641Z,992.06
2016-04-02T08:05:00.643Z,992.1
2016-04-02T08:06:00.614Z,992.04
2016-04-02T08:07:00.616Z,992.01
2016-04-02T08:08:00.619Z,992.04
2016-04-02T08:09:00.637Z,992.01
2016-04-02T08:10:00.624Z,992.05
2016-04-02T08:11:00.643Z,992.01
2016-04-02T08:12:00.645Z,992.05
2016-04-02T08:13:00.648Z,992.05
2016-04-02T08:14:00.667Z,992.1
2016-04-02T08:15:00.654Z,992.13
2016-04-02T08:16:00.657Z,992.1
2016-04-02T08:17:00.659Z,992.07
2016-04-02T08:18:00.646Z,992.02
2016-04-02T08:19:00.664Z,992.03
2016-04-02T08:20:00.651Z,991.97
2016-04-02T08:21:00.654Z,992.03
2016-04-02T08:22:00.657Z,992.1
2016-04-02T08:23:00.660Z,992.1
2016-04-02T08:24:00.662Z,992.14
2016-04-02T08:25:00.665Z,992.2
2016-04-02T08:26:00.667Z,992.16
2016-04-02T08:27:00.670Z,992.18
2016-04-02T08:28:00.672Z,992.17
2016-04-02T08:29:00.675Z,992.16
2016-04-02T08:30:00.663Z,992.19
2016-04-02T08:31:00.681Z,992.16
2016-04-02T08:32:00.684Z,992.15
2016-04-02T08:33:00.686Z,992.14
2016-04-02T08:34:00.689Z,992.08
2016-04-02T08:35:00.691Z,992.13
2016-04-02T08:36:00.679Z,992.1
2016-04-02T08:37:00.696Z,992.09
2016-04-02T08:38:00.699Z,992.11
2016-04-02T08:39:00.702Z,992.11
2016-04-02T08:40:00.705Z,992.06
2016-04-02T08:41:00.692Z,992.03
2016-04-02T08:42:00.711Z,992
2016-04-02T08:43:00.698Z,991.98
2016-04-02T08:44:00.716Z,992.01
2016-04-02T08:45:00.703Z,991.97
2016-04-02T08:46:00.721Z,991.92
2016-04-02T08:47:00.724Z,991.87
2016-04-02T08:48:00.727Z,991.91
2016-04-02T08:49:00.745Z,991.93
2016-04-02T08:50:00.717Z,991.88
2016-04-02T08:51:00.734Z,991.91
2016-04-02T08:52:00.737Z,991.87
2016-04-02T08:53:00.740Z,991.89
2016-04-02T08:54:00.742Z,991.9
2016-04-02T08:55:00.745Z,991.88
2016-04-02T08:56:00.748Z,991.9
2016-04-02T08:57:00.751Z,991.9
2016-04-02T08:58:00.754Z,991.93
2016-04-02T08:59:00.756Z,991.94
2016-04-02T09:00:00.759Z,991.96
2016-04-02T09:01:00.761Z,991.92
2016-04-02T09:02:00.764Z,991.88
2016-04-02T09:03:00.766Z,991.87
2016-04-02T09:04:00.770Z,991.89
2016-04-02T09:05:00.772Z,991.9
2016-04-02T09:06:00.775Z,991.91
2016-04-02T09:07:00.777Z,991.96
2016-04-02T09:08:00.780Z,991.94
2016-04-02T09:09:00.782Z,991.96
2016-04-02T09:10:00.801Z,991.96
2016-04-02T09:11:00.804Z,991.96
2016-04-02T09:12:00.791Z,991.91
2016-04-02T09:13:00.794Z,991.93
2016-04-02T09:14:00.796Z,991.88
2016-04-02T09:15:00.799Z,991.92
2016-04-02T09:16:00.818Z,991.86
2016-04-02T09:17:00.805Z,991.85
2016-04-02T09:18:00.808Z,991.89
2016-04-02T09:19:00.826Z,991.86
2016-04-02T09:20:00.829Z,991.88
2016-04-02T09:21:00.831Z,991.85
2016-04-02T09:22:00.834Z,991.83
2016-04-02T09:23:00.836Z,991.92
2016-04-02T09:24:00.839Z,991.9
2016-04-02T09:25:00.842Z,991.93
2016-04-02T09:26:00.845Z,991.91
2016-04-02T09:27:00.848Z,991.94
2016-04-02T09:28:00.850Z,991.95
2016-04-02T09:29:00.853Z,991.94
2016-04-02T09:30:00.871Z,991.9
2016-04-02T09:31:00.874Z,991.92
2016-04-02T09:32:00.860Z,991.9
2016-04-02T09:33:00.879Z,991.91
2016-04-02T09:34:00.882Z,991.93
2016-04-02T09:35:00.885Z,991.91
2016-04-02T09:36:00.888Z,991.87
2016-04-02T09:37:00.890Z,991.88
2016-04-02T09:38:00.893Z,991.94
2016-04-02T09:39:00.895Z,991.95
2016-04-02T09:40:00.899Z,991.96
2016-04-02T09:41:00.901Z,991.98
2016-04-02T09:42:00.919Z,991.97
2016-04-02T09:43:00.921Z,991.93
2016-04-02T09:44:00.909Z,991.9
2016-04-02T09:45:00.927Z,991.87
2016-04-02T09:46:00.929Z,991.87
2016-04-02T09:47:00.932Z,991.86
2016-04-02T09:48:00.934Z,991.84
2016-04-02T09:49:00.938Z,991.81
2016-04-02T09:50:00.940Z,991.81
2016-04-02T09:51:00.959Z,991.77
2016-04-02T09:52:00.945Z,991.75
2016-04-02T09:53:00.948Z,991.8
2016-04-02T09:54:00.967Z,991.82
2016-04-02T09:55:00.969Z,991.74
2016-04-02T09:56:00.972Z,991.74
2016-04-02T09:57:00.975Z,991.68
2016-04-02T09:58:00.978Z,991.64
2016-04-02T09:59:01.012Z,991.61
2016-04-02T10:00:00.999Z,991.64
2016-04-02T10:01:01.017Z,991.63
2016-04-02T10:02:01.019Z,991.61
2016-04-02T10:03:01.007Z,991.63
2016-04-02T10:04:01.010Z,991.61
2016-04-02T10:05:01.028Z,991.59
2016-04-02T10:06:01.031Z,991.55
2016-04-02T10:07:01.018Z,991.53
2016-04-02T10:08:01.036Z,991.55
2016-04-02T10:09:01.038Z,991.51
2016-04-02T10:10:01.041Z,991.53
2016-04-02T10:11:01.043Z,991.5
2016-04-02T10:12:01.062Z,991.49
2016-04-02T10:13:01.065Z,991.53
2016-04-02T10:14:01.083Z,991.57
2016-04-02T10:15:01.071Z,991.64
2016-04-02T10:16:01.073Z,991.62
2016-04-02T10:17:01.076Z,991.65
2016-04-02T10:18:01.078Z,991.63
2016-04-02T10:19:01.081Z,991.67
2016-04-02T10:20:01.098Z,991.69
2016-04-02T10:21:01.101Z,991.71
2016-04-02T10:22:01.104Z,991.72
2016-04-02T10:23:01.107Z,991.67
2016-04-02T10:24:01.126Z,991.69
2016-04-02T10:25:01.128Z,991.62
2016-04-02T10:26:01.131Z,991.63
2016-04-02T10:27:01.133Z,991.56
2016-04-02T10:28:01.136Z,991.57
2016-04-02T10:29:01.139Z,991.55
2016-04-02T10:30:01.158Z,991.52
2016-04-02T10:31:01.161Z,991.49
2016-04-02T10:32:01.163Z,991.53
2016-04-02T10:33:01.181Z,991.43
2016-04-02T10:34:01.168Z,991.4
2016-04-02T10:35:01.186Z,991.37
2016-04-02T10:36:01.188Z,991.38
2016-04-02T10:37:01.176Z,991.37
2016-04-02T10:38:01.194Z,991.35
2016-04-02T10:39:01.197Z,991.38
2016-04-02T10:40:01.200Z,991.39
2016-04-02T10:41:01.202Z,991.37
2016-04-02T10:42:01.205Z,991.37
2016-04-02T10:43:01.208Z,991.38
2016-04-02T10:44:01.226Z,991.34
2016-04-02T10:45:01.229Z,991.37
2016-04-02T10:46:01.231Z,991.37
2016-04-02T10:47:01.234Z,991.33
2016-04-02T10:48:01.253Z,991.38
2016-04-02T10:49:01.256Z,991.35
2016-04-02T10:50:01.259Z,991.33
2016-04-02T10:51:01.245Z,991.37
2016-04-02T10:52:01.264Z,991.33
2016-04-02T10:53:01.266Z,991.33
2016-04-02T10:54:01.270Z,991.33
2016-04-02T10:55:01.272Z,991.32
2016-04-02T10:56:01.290Z,991.28
2016-04-02T10:57:01.293Z,991.27
2016-04-02T10:58:01.280Z,991.25
2016-04-02T10:59:01.298Z,991.23
2016-04-02T11:00:01.316Z,991.23
2016-04-02T11:01:01.319Z,991.19
2016-04-02T11:02:01.321Z,991.18
2016-04-02T11:03:01.314Z,991.17
2016-04-02T11:04:01.320Z,991.11
2016-04-02T11:05:01.312Z,991.07
2016-04-02T11:06:01.304Z,991.07
2016-04-02T11:07:01.295Z,991.02
2016-04-02T11:08:01.293Z,990.99
2016-04-02T11:09:01.292Z,990.97
2016-04-02T11:10:01.290Z,990.95
2016-04-02T11:11:01.304Z,990.92
2016-04-02T11:12:01.287Z,990.93
2016-04-02T11:13:01.304Z,990.91
2016-04-02T11:14:01.289Z,990.87
2016-04-02T11:15:01.306Z,990.89
2016-04-02T11:16:01.338Z,990.84
2016-04-02T11:17:01.324Z,990.85
2016-04-02T11:18:01.311Z,990.79
2016-04-02T11:19:01.330Z,990.83
2016-04-02T11:20:01.332Z,990.82
2016-04-02T11:21:01.334Z,990.82
2016-04-02T11:22:01.351Z,990.82
2016-04-02T11:23:01.339Z,990.76
2016-04-02T11:24:01.373Z,990.78
2016-04-02T11:25:01.360Z,990.73
2016-04-02T11:26:01.363Z,990.73
2016-04-02T11:27:01.365Z,990.72
2016-04-02T11:28:01.368Z,990.78
2016-04-02T11:29:01.386Z,990.77
2016-04-02T11:30:01.373Z,990.79
2016-04-02T11:31:01.408Z,990.84
2016-04-02T11:32:01.410Z,990.79
2016-04-02T11:33:01.413Z,990.79
2016-04-02T11:34:01.416Z,990.81
2016-04-02T11:35:01.419Z,990.81
2016-04-02T11:36:01.422Z,990.85
2016-04-02T11:37:01.439Z,990.92
2016-04-02T11:38:01.427Z,990.94
2016-04-02T11:39:01.429Z,990.97
2016-04-02T11:40:01.432Z,990.99
2016-04-02T11:41:01.449Z,991.01
2016-04-02T11:42:01.452Z,991.01
2016-04-02T11:43:01.455Z,991.03
2016-04-02T11:44:01.457Z,991.03
2016-04-02T11:45:01.461Z,991.01
2016-04-02T11:46:01.479Z,990.97
2016-04-02T11:47:01.482Z,990.99
2016-04-02T11:48:01.484Z,991.02
2016-04-02T11:49:01.487Z,990.95
2016-04-02T11:50:01.505Z,990.96
2016-04-02T11:51:01.508Z,990.96
2016-04-02T11:52:01.511Z,991
2016-04-02T11:53:01.513Z,990.88
2016-04-02T11:54:01.532Z,990.89
2016-04-02T11:55:01.534Z,990.91
2016-04-02T11:56:01.521Z,990.87
2016-04-02T11:57:01.539Z,990.85
2016-04-02T11:58:01.542Z,990.84
2016-04-02T11:59:01.545Z,990.81
2016-04-02T12:00:01.547Z,990.76
2016-04-02T12:01:01.567Z,990.72
2016-04-02T12:02:01.569Z,990.66
2016-04-02T12:03:01.587Z,990.67
2016-04-02T12:04:01.574Z,990.61
2016-04-02T12:05:01.608Z,990.63
2016-04-02T12:06:01.595Z,990.64
2016-04-02T12:07:01.597Z,990.58
2016-04-02T12:08:01.600Z,990.62
2016-04-02T12:09:01.602Z,990.57
2016-04-02T12:10:01.621Z,990.54
2016-04-02T12:11:01.624Z,990.48
2016-04-02T12:12:01.627Z,990.49
2016-04-02T12:13:01.630Z,990.44
2016-04-02T12:14:01.648Z,990.47
2016-04-02T12:15:01.651Z,990.44
2016-04-02T12:16:01.685Z,990.43
2016-04-02T12:17:01.671Z,990.4
2016-04-02T12:18:01.675Z,990.43
2016-04-02T12:19:01.693Z,990.43
2016-04-02T12:20:01.680Z,990.42
2016-04-02T12:21:01.698Z,990.39
2016-04-02T12:22:01.701Z,990.41
2016-04-02T12:23:01.704Z,990.39
2016-04-02T12:24:01.706Z,990.38
2016-04-02T12:25:01.709Z,990.34
2016-04-02T12:26:01.726Z,990.31
2016-04-02T12:27:01.730Z,990.31
2016-04-02T12:28:01.732Z,990.3
2016-04-02T12:29:01.735Z,990.23
2016-04-02T12:30:01.754Z,990.22
2016-04-02T12:31:01.756Z,990.18